Time;durP1;ratioP1;P1;durP2;ratioP2;P2;SDS_P1;SDS_P2;PMS_P1;PMS_P2;Temp;Humidity;BMP_temperature;BMP_pressure;BME280_temperature;BME280_humidity;BME280_pressure;Samples;Min_cycle;Max_cycle;Signal;HPM_P1;HPM_P2
2023/04/20 00:01:37;;;;;;;17.77;9.65;;;;;;;10.13;68.46;94851.22;5038667;28;20030;-77
2023/04/20 00:04:03;;;;;;;20.58;10.77;;;;;;;10.45;69.42;94880.63;5038712;28;20093;-77
2023/04/20 00:06:31;;;;;;;15.10;9.73;;;;;;;9.73;68.69;94789.53;5017390;28;20045;-77
2023/04/20 00:08:56;;;;;;;18.73;10.48;;;;;;;10.42;69.18;94866.06;5020621;28;20050;-78
2023/04/20 00:11:22;;;;;;;17.23;11.07;;;;;;;9.86;69.49;94810.09;5025286;28;20470;-77
2023/04/20 00:13:47;;;;;;;17.88;10.05;;;;;;;9.88;67.62;94780.69;5004680;28;20029;-77
2023/04/20 00:16:12;;;;;;;17.23;11.05;;;;;;;10.35;67.71;94870.13;5001743;28;20084;-77
2023/04/20 00:18:39;;;;;;;14.85;10.63;;;;;;;10.31;68.97;94874.38;5018997;28;20124;-77
2023/04/20 00:21:05;;;;;;;14.15;9.23;;;;;;;10.08;68.27;94865.28;5000575;28;20048;-77
2023/04/20 00:23:30;;;;;;;13.65;9.75;;;;;;;10.12;69.74;94865.53;5035730;28;20044;-77
2023/04/20 00:25:56;;;;;;;13.00;9.95;;;;;;;9.95;68.55;94858.75;5037767;28;20471;-77
2023/04/20 00:28:21;;;;;;;16.30;10.35;;;;;;;9.92;69.80;94829.38;5038938;28;20137;-77
2023/04/20 00:30:46;;;;;;;20.95;10.88;;;;;;;10.08;69.42;94868.72;5018511;28;20041;-77
2023/04/20 00:33:12;;;;;;;17.45;10.73;;;;;;;9.74;69.56;94832.69;5003466;28;20026;-77
2023/04/20 00:35:37;;;;;;;20.65;10.88;;;;;;;10.10;70.43;94860.50;5020743;28;20029;-77
2023/04/20 00:38:03;;;;;;;20.75;10.82;;;;;;;9.92;69.95;94835.47;5003433;28;20030;-78
2023/04/20 00:40:28;;;;;;;18.15;10.77;;;;;;;10.01;69.11;94868.25;5020463;28;20048;-78
2023/04/20 00:42:54;;;;;;;23.10;11.00;;;;;;;9.86;70.52;94828.63;5037885;28;20025;-77
2023/04/20 00:45:21;;;;;;;16.20;10.55;;;;;;;9.63;69.86;94821.38;5039857;28;20060;-77
2023/04/20 00:47:47;;;;;;;20.60;10.73;;;;;;;9.75;69.16;94861.56;5025021;28;20037;-77
2023/04/20 00:50:15;;;;;;;17.38;10.07;;;;;;;9.63;69.78;94853.94;5026963;28;20036;-77
2023/04/20 00:52:40;;;;;;;15.32;10.15;;;;;;;9.56;70.99;94836.78;5007770;28;20042;-77
2023/04/20 00:55:06;;;;;;;19.00;9.70;;;;;;;9.12;68.78;94802.38;5023957;28;20064;-78
2023/04/20 00:57:32;;;;;;;17.45;9.70;;;;;;;9.00;70.16;94799.28;5022531;28;20488;-77
2023/04/20 00:59:57;;;;;;;17.63;10.93;;;;;;;8.87;70.29;94787.44;5021578;28;20416;-78
2023/04/20 01:02:23;;;;;;;14.40;10.13;;;;;;;8.85;69.73;94797.47;5020519;28;20037;-78
2023/04/20 01:04:48;;;;;;;22.13;10.18;;;;;;;9.27;71.89;94866.59;5020101;28;20037;-78
2023/04/20 01:07:14;;;;;;;18.95;11.23;;;;;;;8.90;70.72;94803.56;5019888;28;20030;-79
2023/04/20 01:09:40;;;;;;;19.98;11.00;;;;;;;8.92;71.19;94821.00;5019587;28;20030;-78
2023/04/20 01:12:06;;;;;;;21.83;11.38;;;;;;;8.95;70.75;94833.66;5020219;28;20043;-78
2023/04/20 01:14:31;;;;;;;16.27;11.25;;;;;;;9.13;71.84;94862.97;5037170;28;20038;-78
2023/04/20 01:16:57;;;;;;;15.30;11.32;;;;;;;8.93;72.59;94841.06;5037985;28;20038;-78
2023/04/20 01:19:23;;;;;;;18.67;11.25;;;;;;;8.65;72.31;94818.72;5020131;28;20116;-78
2023/04/20 01:21:49;;;;;;;17.00;11.05;;;;;;;8.70;72.36;94808.13;5037617;28;20464;-79
2023/04/20 01:24:14;;;;;;;16.60;10.95;;;;;;;9.18;72.84;94865.56;5036806;28;20034;-78
2023/04/20 01:26:39;;;;;;;17.08;10.65;;;;;;;8.94;71.84;94824.16;5020060;28;20025;-78
2023/04/20 01:29:05;;;;;;;19.55;11.15;;;;;;;9.08;71.82;94851.63;5019880;28;20044;-78
2023/04/20 01:31:31;;;;;;;15.27;10.95;;;;;;;9.23;71.77;94860.25;5037590;28;20041;-79
2023/04/20 01:33:56;;;;;;;18.65;11.85;;;;;;;9.13;72.22;94849.75;5019846;28;20483;-79
2023/04/20 01:36:21;;;;;;;21.77;11.63;;;;;;;8.81;72.11;94791.97;5037035;28;20480;-79
2023/04/20 01:38:48;;;;;;;21.80;11.75;;;;;;;9.15;71.76;94852.13;5036734;28;20139;-78
2023/04/20 01:41:13;;;;;;;19.10;11.65;;;;;;;9.09;71.92;94853.19;5035942;28;20037;-78
2023/04/20 01:43:39;;;;;;;20.20;11.18;;;;;;;8.36;70.76;94718.13;5019121;28;20068;-79
2023/04/20 01:46:05;;;;;;;16.67;10.80;;;;;;;9.00;70.83;94810.63;5003784;28;20046;-78
2023/04/20 01:48:30;;;;;;;18.70;10.98;;;;;;;8.62;70.75;94745.25;5020454;28;20038;-79
2023/04/20 01:50:56;;;;;;;17.67;10.15;;;;;;;8.87;70.42;94793.50;5023535;28;20041;-79
2023/04/20 01:53:22;;;;;;;22.73;11.38;;;;;;;9.10;70.65;94815.88;5008615;28;20037;-80
2023/04/20 01:55:48;;;;;;;16.80;10.73;;;;;;;9.18;70.64;94838.31;5026901;28;20049;-80
2023/04/20 01:58:14;;;;;;;14.10;10.63;;;;;;;9.18;70.77;94820.59;5006030;28;20095;-81
2023/04/20 02:00:39;;;;;;;20.65;10.77;;;;;;;9.04;71.01;94800.31;5016567;28;20041;-80
2023/04/20 02:03:05;;;;;;;18.13;10.25;;;;;;;9.06;70.22;94820.16;5015830;28;20124;-81
2023/04/20 02:05:31;;;;;;;20.27;11.02;;;;;;;9.08;69.98;94835.75;5033090;28;20039;-80
2023/04/20 02:07:56;;;;;;;17.35;10.75;;;;;;;9.12;70.41;94834.13;5015809;28;20534;-80
2023/04/20 02:10:22;;;;;;;18.08;10.75;;;;;;;8.91;71.38;94820.22;5018571;28;20029;-81
2023/04/20 02:12:48;;;;;;;19.02;11.10;;;;;;;9.09;70.07;94829.38;5014166;28;20088;-80
2023/04/20 02:15:14;;;;;;;18.73;10.25;;;;;;;8.94;70.60;94824.16;4995638;28;20034;-80
2023/04/20 02:17:40;;;;;;;14.35;10.40;;;;;;;9.07;70.48;94844.75;5014283;28;20033;-80
2023/04/20 02:20:09;;;;;;;23.50;11.38;;;;;;;8.76;70.93;94789.34;5033314;28;20025;-80
2023/04/20 02:22:36;;;;;;;16.35;10.90;;;;;;;8.89;71.18;94809.91;5016038;28;20531;-80
2023/04/20 02:25:03;;;;;;;19.25;11.30;;;;;;;9.06;70.65;94817.50;5033556;28;20108;-80
2023/04/20 02:27:30;;;;;;;22.65;11.38;;;;;;;9.20;70.81;94815.03;5033091;28;20406;-81
2023/04/20 02:29:56;;;;;;;15.50;10.75;;;;;;;9.24;70.73;94843.31;5026953;28;20117;-80
2023/04/20 02:32:21;;;;;;;23.20;11.50;;;;;;;8.29;70.64;94688.53;5004092;28;20550;-81
2023/04/20 02:34:47;;;;;;;15.13;10.85;;;;;;;8.95;70.43;94767.56;5033225;28;20060;-80
2023/04/20 02:37:12;;;;;;;17.92;11.30;;;;;;;9.21;69.20;94828.00;5015237;28;20029;-81
2023/04/20 02:39:37;;;;;;;14.40;10.40;;;;;;;8.36;69.64;94707.56;5033268;28;20507;-81
2023/04/20 02:42:04;;;;;;;24.88;11.43;;;;;;;9.01;69.84;94825.44;5015488;28;20030;-80
2023/04/20 02:44:30;;;;;;;19.10;10.50;;;;;;;8.95;69.82;94826.53;5015654;28;20056;-80
2023/04/20 02:46:55;;;;;;;16.13;10.90;;;;;;;8.85;70.10;94845.06;5015027;28;20029;-81
2023/04/20 02:49:21;;;;;;;16.80;10.48;;;;;;;8.93;70.11;94823.34;5032994;28;20384;-80
2023/04/20 02:51:46;;;;;;;19.08;11.95;;;;;;;8.96;70.17;94827.31;5015334;28;20041;-80
2023/04/20 02:54:11;;;;;;;19.25;10.63;;;;;;;8.81;70.24;94823.69;5014668;28;20519;-80
2023/04/20 02:56:37;;;;;;;19.35;11.23;;;;;;;8.28;70.75;94727.38;5014265;28;20073;-80
2023/04/20 02:59:03;;;;;;;19.10;10.60;;;;;;;8.74;70.00;94788.03;5014901;28;20029;-80
2023/04/20 03:01:29;;;;;;;19.13;11.10;;;;;;;8.99;69.71;94792.41;5014977;28;20128;-80
2023/04/20 03:03:54;;;;;;;20.95;11.88;;;;;;;8.92;69.19;94768.91;5032810;28;20067;-80
2023/04/20 03:06:21;;;;;;;17.25;10.80;;;;;;;9.45;68.90;94844.03;5014591;28;20037;-80
2023/04/20 03:08:46;;;;;;;14.98;9.18;;;;;;;9.47;68.88;94844.50;5014205;28;20085;-79
2023/04/20 03:11:12;;;;;;;18.88;11.13;;;;;;;9.45;69.07;94820.19;4998419;28;20128;-80
2023/04/20 03:13:37;;;;;;;15.85;9.65;;;;;;;9.26;68.67;94785.63;5032313;28;20027;-80
2023/04/20 03:16:04;;;;;;;26.33;10.27;;;;;;;9.55;68.74;94832.56;5032126;28;20064;-80
2023/04/20 03:18:30;;;;;;;20.52;10.73;;;;;;;9.61;68.27;94823.53;5031975;28;20057;-80
2023/04/20 03:20:55;;;;;;;20.50;10.77;;;;;;;9.40;68.30;94811.47;5014840;28;20487;-80
2023/04/20 03:23:21;;;;;;;13.98;9.57;;;;;;;9.46;68.49;94819.09;5014731;28;20029;-80
2023/04/20 03:25:47;;;;;;;24.67;10.88;;;;;;;9.52;68.64;94810.09;5014144;28;20037;-80
2023/04/20 03:28:15;;;;;;;18.42;10.68;;;;;;;9.58;68.20;94816.13;5013120;28;20102;-80
2023/04/20 03:30:40;;;;;;;15.43;9.77;;;;;;;9.55;68.41;94840.50;4994607;28;20018;-80
2023/04/20 03:33:05;;;;;;;14.60;10.70;;;;;;;9.29;68.78;94803.63;4996135;28;20439;-80
2023/04/20 03:35:31;;;;;;;17.83;10.95;;;;;;;9.45;69.17;94817.56;5014371;28;20120;-80
2023/04/20 03:37:56;;;;;;;21.25;11.55;;;;;;;8.92;68.63;94739.81;5013514;28;20433;-80
2023/04/20 03:40:22;;;;;;;17.35;10.48;;;;;;;9.10;68.04;94778.84;5031785;28;20069;-80
2023/04/20 03:42:47;;;;;;;18.42;10.93;;;;;;;9.15;68.16;94784.13;5031848;28;20033;-80
2023/04/20 03:45:13;;;;;;;16.55;11.43;;;;;;;9.22;68.67;94811.06;5031996;28;20033;-80
2023/04/20 03:47:39;;;;;;;17.25;11.50;;;;;;;9.29;68.43;94838.03;5014001;28;20495;-81
2023/04/20 03:50:05;;;;;;;15.63;11.27;;;;;;;9.20;68.75;94831.72;5026646;28;20438;-80
2023/04/20 03:52:30;;;;;;;17.17;10.77;;;;;;;9.19;68.74;94843.34;4983378;28;20026;-80
2023/04/20 03:54:56;;;;;;;19.20;10.90;;;;;;;9.39;69.29;94841.66;5031937;28;20408;-80
2023/04/20 03:57:21;;;;;;;18.50;11.13;;;;;;;9.19;68.21;94806.31;5013138;28;20428;-80
2023/04/20 03:59:47;;;;;;;18.17;10.80;;;;;;;9.24;68.75;94816.06;5021492;28;20113;-80
2023/04/20 04:02:12;;;;;;;15.32;10.55;;;;;;;9.41;68.03;94828.94;5022382;28;20503;-80
2023/04/20 04:04:38;;;;;;;25.08;11.13;;;;;;;9.47;68.18;94835.78;5029740;28;20037;-81
2023/04/20 04:07:04;;;;;;;32.72;11.30;;;;;;;9.70;68.43;94840.41;5011319;28;20116;-80
2023/04/20 04:09:29;;;;;;;19.75;11.18;;;;;;;9.54;67.60;94826.47;5009479;28;20081;-80
2023/04/20 04:11:56;;;;;;;16.73;10.60;;;;;;;9.60;67.23;94835.19;5012515;28;20046;-80
2023/04/20 04:14:21;;;;;;;14.25;9.32;;;;;;;9.60;67.15;94835.97;5012863;28;20034;-80
2023/04/20 04:16:47;;;;;;;15.95;10.50;;;;;;;9.43;67.33;94800.34;5010468;28;20063;-81
2023/04/20 04:19:14;;;;;;;20.13;11.02;;;;;;;9.37;67.34;94785.56;5006539;28;20052;-81
2023/04/20 04:21:40;;;;;;;14.68;10.45;;;;;;;9.72;66.32;94862.09;5009550;28;20061;-80
2023/04/20 04:24:06;;;;;;;17.20;9.52;;;;;;;9.64;66.62;94858.19;5021810;28;20040;-80
2023/04/20 04:26:32;;;;;;;16.15;10.27;;;;;;;9.79;66.89;94856.50;5021200;28;20041;-81
2023/04/20 04:28:58;;;;;;;20.08;12.27;;;;;;;9.64;67.31;94837.00;5000947;28;20127;-81
2023/04/20 04:31:24;;;;;;;18.65;10.40;;;;;;;9.27;67.71;94779.28;5017295;28;20708;-81
2023/04/20 04:33:50;;;;;;;28.92;13.77;;;;;;;9.50;67.25;94822.00;4996887;28;20036;-80
2023/04/20 04:36:16;;;;;;;22.40;11.45;;;;;;;9.68;66.72;94858.44;5001450;28;20125;-81
2023/04/20 04:38:45;;;;;;;19.98;12.63;;;;;;;9.69;67.24;94854.69;5002919;28;20756;-81
2023/04/20 04:41:14;;;;;;;26.13;12.32;;;;;;;9.26;67.29;94772.41;5017591;28;20115;-81
2023/04/20 04:43:40;;;;;;;34.63;12.20;;;;;;;9.56;67.16;94811.09;5017075;28;20068;-81
2023/04/20 04:46:09;;;;;;;23.10;12.45;;;;;;;9.74;67.50;94848.59;5014220;28;20092;-81
2023/04/20 04:48:36;;;;;;;22.63;11.27;;;;;;;9.77;66.76;94870.00;4999037;28;20485;-81
2023/04/20 04:51:02;;;;;;;22.02;12.32;;;;;;;9.58;67.15;94830.16;4999144;28;20053;-82
2023/04/20 04:53:27;;;;;;;17.98;10.68;;;;;;;9.87;66.39;94869.94;5000647;28;20057;-81
2023/04/20 04:55:53;;;;;;;28.05;12.00;;;;;;;9.87;66.95;94859.34;5001568;28;20040;-82
2023/04/20 04:58:18;;;;;;;20.77;11.07;;;;;;;9.68;66.66;94824.00;4995268;28;20029;-82
2023/04/20 05:00:44;;;;;;;19.23;11.63;;;;;;;10.04;66.22;94878.28;5003462;28;20117;-83
2023/04/20 05:03:09;;;;;;;18.85;11.02;;;;;;;9.75;66.44;94861.56;4998391;28;20782;-81
2023/04/20 05:05:35;;;;;;;27.83;12.73;;;;;;;9.74;66.98;94838.78;5020477;28;20036;-82
2023/04/20 05:08:00;;;;;;;28.88;12.40;;;;;;;9.45;66.45;94822.03;5017638;28;20053;-83
2023/04/20 05:10:26;;;;;;;17.58;12.85;;;;;;;9.47;66.54;94822.53;4994391;28;20048;-84
2023/04/20 05:12:51;;;;;;;37.38;13.15;;;;;;;9.21;67.44;94808.69;5020675;28;20063;-83
2023/04/20 05:15:17;;;;;;;23.63;13.18;;;;;;;9.48;66.90;94827.56;5015738;28;20120;-81
2023/04/20 05:17:43;;;;;;;32.20;13.93;;;;;;;9.79;67.24;94877.69;5002169;28;20057;-83
2023/04/20 05:20:10;;;;;;;19.65;13.65;;;;;;;9.86;66.84;94875.50;5023996;28;20029;-84
2023/04/20 05:22:35;;;;;;;20.05;12.63;;;;;;;9.44;66.78;94836.34;5020713;28;20036;-83
2023/04/20 05:25:01;;;;;;;18.40;12.57;;;;;;;9.70;66.82;94880.09;5021921;28;20477;-83
2023/04/20 05:27:26;;;;;;;19.92;13.50;;;;;;;9.39;67.56;94839.78;5015735;28;20030;-83
2023/04/20 05:29:52;;;;;;;33.45;14.05;;;;;;;9.80;67.22;94884.56;5000540;28;20093;-83
2023/04/20 05:32:17;;;;;;;28.50;13.85;;;;;;;9.50;67.34;94843.19;5006181;28;20069;-82
2023/04/20 05:34:42;;;;;;;20.23;13.27;;;;;;;9.78;66.74;94866.28;5003032;28;20048;-81
2023/04/20 05:37:08;;;;;;;25.80;13.50;;;;;;;9.76;66.86;94868.44;5020128;28;20815;-83
2023/04/20 05:39:34;;;;;;;31.23;15.48;;;;;;;9.11;67.32;94780.44;4997825;28;20053;-82
2023/04/20 05:41:59;;;;;;;29.95;14.43;;;;;;;9.75;66.56;94881.94;5018002;28;20037;-81
2023/04/20 05:44:25;;;;;;;22.50;13.10;;;;;;;9.34;67.09;94818.66;5000594;28;20060;-82
2023/04/20 05:46:50;;;;;;;24.98;14.52;;;;;;;9.84;66.86;94885.59;5002511;28;20036;-83
2023/04/20 05:49:15;;;;;;;24.08;15.27;;;;;;;9.29;67.23;94805.47;5003765;28;20093;-83
2023/04/20 05:51:41;;;;;;;23.42;14.75;;;;;;;9.82;66.71;94872.63;5017363;28;20030;-83
2023/04/20 05:54:06;;;;;;;33.75;16.42;;;;;;;9.69;66.74;94839.59;5000654;28;20338;-83
2023/04/20 05:56:32;;;;;;;23.83;14.85;;;;;;;9.73;67.01;94862.91;5001484;28;20033;-83
2023/04/20 05:58:59;;;;;;;27.35;18.20;;;;;;;9.70;67.62;94853.63;5000938;28;20044;-83
2023/04/20 06:01:25;;;;;;;23.50;16.35;;;;;;;9.98;69.23;94889.22;5002462;28;20060;-80
2023/04/20 06:03:51;;;;;;;28.35;15.30;;;;;;;9.95;69.19;94881.81;5010465;28;20084;-83
2023/04/20 06:06:16;;;;;;;22.35;15.30;;;;;;;9.77;67.99;94893.03;5000682;28;20095;-81
2023/04/20 06:08:41;;;;;;;27.17;16.00;;;;;;;8.86;70.09;94762.84;5021505;28;20068;-82
2023/04/20 06:11:07;;;;;;;26.55;16.45;;;;;;;8.79;71.35;94767.63;4997450;28;20037;-82
2023/04/20 06:13:32;;;;;;;21.60;15.65;;;;;;;9.22;70.08;94815.56;5016241;28;20029;-86
2023/04/20 06:15:58;;;;;;;24.95;17.67;;;;;;;8.88;71.67;94781.06;5017652;28;20033;-81
2023/04/20 06:18:23;;;;;;;26.67;17.13;;;;;;;9.48;71.65;94892.94;4999035;28;20033;-82
2023/04/20 06:20:48;;;;;;;30.50;16.52;;;;;;;8.57;71.00;94729.41;5000945;28;20041;-83
2023/04/20 06:23:15;;;;;;;57.50;22.38;;;;;;;9.02;71.52;94803.22;5000194;28;20033;-83
2023/04/20 06:25:40;;;;;;;28.65;15.98;;;;;;;9.55;69.87;94904.81;5020412;28;20571;-82
2023/04/20 06:28:06;;;;;;;24.58;15.40;;;;;;;9.56;70.11;94908.25;4999108;28;20107;-82
2023/04/20 06:30:32;;;;;;;50.80;18.67;;;;;;;9.02;70.30;94803.22;4997305;28;20021;-81
2023/04/20 06:33:02;;;;;;;43.35;18.75;;;;;;;9.57;70.92;94892.13;5021827;28;20446;-82
2023/04/20 06:35:27;;;;;;;37.03;17.35;;;;;;;9.35;70.64;94867.09;5000651;28;20061;-83
2023/04/20 06:37:57;;;;;;;46.53;20.55;;;;;;;9.52;71.07;94886.06;4998522;28;20095;-81
2023/04/20 06:40:25;;;;;;;35.15;16.83;;;;;;;9.64;69.27;94919.06;5001880;28;20042;-83
2023/04/20 06:42:51;;;;;;;44.55;19.58;;;;;;;9.66;71.08;94901.06;5013747;28;20037;-82
2023/04/20 06:45:17;;;;;;;35.58;19.35;;;;;;;8.99;69.83;94803.78;4996891;28;20037;-82
2023/04/20 06:47:42;;;;;;;37.17;19.17;;;;;;;9.75;71.13;94911.88;5001860;28;20071;-84
2023/04/20 06:50:08;;;;;;;58.70;21.13;;;;;;;9.03;70.79;94788.94;5001802;28;20025;-83
2023/04/20 06:52:37;;;;;;;33.28;18.35;;;;;;;9.26;70.16;94829.81;5003461;28;20022;-83
2023/04/20 06:55:03;;;;;;;24.42;17.60;;;;;;;9.76;70.98;94915.31;5018373;28;20488;-81
2023/04/20 06:57:29;;;;;;;34.35;18.48;;;;;;;9.38;71.12;94850.69;5001932;28;20040;-83
2023/04/20 06:59:54;;;;;;;30.83;18.75;;;;;;;9.13;71.99;94815.34;5005648;28;20037;-84
2023/04/20 07:02:20;;;;;;;35.42;20.90;;;;;;;9.41;74.50;94844.81;5005471;28;20060;-84
2023/04/20 07:04:45;;;;;;;33.47;19.48;;;;;;;9.87;72.48;94919.47;5022610;28;20171;-83
2023/04/20 07:07:11;;;;;;;32.33;19.88;;;;;;;9.54;73.33;94883.91;4985401;28;20030;-81
2023/04/20 07:09:37;;;;;;;41.90;21.17;;;;;;;9.43;74.00;94854.06;5017109;28;20508;-81
2023/04/20 07:12:02;;;;;;;50.78;22.48;;;;;;;9.74;74.97;94898.91;5014793;28;20043;-83
2023/04/20 07:14:28;;;;;;;33.33;19.95;;;;;;;9.54;73.79;94844.19;4998199;28;20033;-83
2023/04/20 07:16:54;;;;;;;32.75;19.45;;;;;;;9.76;73.30;94889.63;5023896;28;20041;-84
2023/04/20 07:19:19;;;;;;;52.63;21.85;;;;;;;9.87;72.35;94892.97;5015213;28;20033;-83
2023/04/20 07:21:45;;;;;;;35.97;18.52;;;;;;;9.19;71.53;94789.66;5001367;28;20036;-86
2023/04/20 07:24:10;;;;;;;33.08;17.33;;;;;;;9.80;70.42;94874.75;5001893;28;20029;-84
2023/04/20 07:26:36;;;;;;;30.75;16.42;;;;;;;9.22;69.69;94811.06;5003451;28;20025;-84
2023/04/20 07:29:01;;;;;;;46.85;18.75;;;;;;;9.46;69.80;94818.34;5000931;28;20030;-83
2023/04/20 07:31:27;;;;;;;24.25;16.50;;;;;;;10.04;69.97;94926.00;5019775;28;20120;-85
2023/04/20 07:33:52;;;;;;;27.60;16.88;;;;;;;9.23;69.62;94819.81;5020849;28;20054;-83
2023/04/20 07:36:19;;;;;;;31.73;17.73;;;;;;;10.03;69.17;94935.00;4986776;28;20036;-84
2023/04/20 07:38:44;;;;;;;31.45;17.77;;;;;;;9.15;69.21;94772.75;5020497;28;20048;-83
2023/04/20 07:41:10;;;;;;;25.35;16.27;;;;;;;9.29;68.49;94784.31;4995533;28;20452;-82
2023/04/20 07:43:36;;;;;;;33.03;18.13;;;;;;;10.31;69.06;94911.50;5013954;28;20226;-83
2023/04/20 07:46:02;;;;;;;33.10;17.73;;;;;;;10.31;68.05;94912.28;5000475;28;20079;-82
2023/04/20 07:48:27;;;;;;;27.02;16.88;;;;;;;10.16;67.65;94887.72;5003998;28;20029;-81
2023/04/20 07:50:53;;;;;;;38.78;18.33;;;;;;;10.42;67.89;94918.31;5017713;28;20044;-81
2023/04/20 07:53:19;;;;;;;34.63;18.25;;;;;;;10.02;67.53;94840.69;5000186;28;20064;-83
2023/04/20 07:55:44;;;;;;;21.25;13.73;;;;;;;10.60;66.10;94936.19;5001312;28;20022;-82
2023/04/20 07:58:10;;;;;;;23.25;15.35;;;;;;;10.19;66.36;94864.16;5007596;28;20064;-81
2023/04/20 08:00:36;;;;;;;30.85;15.10;;;;;;;10.30;66.56;94860.34;5016558;28;20071;-81
2023/04/20 08:03:01;;;;;;;26.25;15.52;;;;;;;10.56;64.64;94891.94;4988078;28;20033;-80
2023/04/20 08:05:27;;;;;;;32.78;16.85;;;;;;;10.70;65.61;94895.50;5013307;28;20459;-81
2023/04/20 08:07:52;;;;;;;22.92;14.10;;;;;;;10.44;64.47;94887.81;5002266;28;20140;-80
2023/04/20 08:10:18;;;;;;;25.42;14.88;;;;;;;10.46;64.45;94842.44;5009804;28;20041;-79
2023/04/20 08:12:43;;;;;;;23.48;14.27;;;;;;;10.43;64.38;94809.34;5004441;28;20157;-79
2023/04/20 08:15:09;;;;;;;29.30;14.85;;;;;;;11.21;65.76;94938.22;5032284;28;20431;-79
2023/04/20 08:17:35;;;;;;;25.00;14.65;;;;;;;11.12;63.84;94929.28;5011201;28;20030;-80
2023/04/20 08:20:00;;;;;;;26.90;13.48;;;;;;;10.71;64.19;94871.34;5009907;28;20026;-81
2023/04/20 08:22:28;;;;;;;27.33;13.60;;;;;;;10.56;65.13;94823.78;5014411;28;20554;-80
2023/04/20 08:24:55;;;;;;;25.92;14.15;;;;;;;11.24;64.69;94924.38;5013462;28;20044;-79
2023/04/20 08:27:22;;;;;;;26.10;15.13;;;;;;;11.33;64.24;94922.69;5014432;28;20120;-80
2023/04/20 08:29:47;;;;;;;28.48;15.68;;;;;;;11.41;64.11;94939.84;5011242;28;20062;-80
2023/04/20 08:32:14;;;;;;;29.90;15.18;;;;;;;11.33;64.44;94921.88;5026226;28;20025;-81
2023/04/20 08:34:41;;;;;;;27.88;14.82;;;;;;;11.08;64.71;94852.09;5031298;28;20029;-81
2023/04/20 08:37:07;;;;;;;23.90;14.68;;;;;;;11.47;64.07;94904.97;5014427;28;20522;-80
2023/04/20 08:39:33;;;;;;;22.20;14.40;;;;;;;11.14;63.69;94874.06;5028325;28;20041;-80
2023/04/20 08:41:59;;;;;;;24.05;14.10;;;;;;;11.20;63.36;94860.47;4995042;28;20041;-80
2023/04/20 08:44:24;;;;;;;28.25;14.90;;;;;;;11.24;63.79;94850.03;5035038;28;20154;-80
2023/04/20 08:46:50;;;;;;;29.77;16.33;;;;;;;10.80;63.42;94763.56;5013285;28;20026;-84
2023/04/20 08:49:17;;;;;;;28.73;15.30;;;;;;;11.41;62.42;94882.22;5019250;28;20039;-80
2023/04/20 08:51:44;;;;;;;32.00;15.77;;;;;;;11.59;62.41;94928.47;5032468;28;20064;-83
2023/04/20 08:54:12;;;;;;;23.23;14.93;;;;;;;11.59;62.55;94926.59;5011041;28;20025;-84
2023/04/20 08:56:39;;;;;;;28.30;16.30;;;;;;;11.50;62.40;94903.63;5012643;28;20026;-83
2023/04/20 08:59:14;;;;;;;24.73;14.43;;;;;;;11.07;62.04;94844.41;5020929;28;20126;-84
2023/04/20 09:01:41;;;;;;;20.15;13.68;;;;;;;9.63;62.00;94638.69;5012238;28;20030;-83
2023/04/20 09:04:20;;;;;;;23.50;13.63;;;;;;;11.41;62.16;94923.91;5007232;28;20132;-79
2023/04/20 09:06:51;;;;;;;25.85;14.13;;;;;;;11.06;62.32;94851.59;5026178;28;20093;-82
2023/04/20 09:09:20;;;;;;;22.90;14.20;;;;;;;11.60;62.73;94922.84;5001348;28;20080;-81
2023/04/20 09:12:09;;;;;;;21.13;14.75;;;;;;;11.36;62.28;94906.19;5010001;28;20041;-82
2023/04/20 09:14:48;;;;;;;28.55;16.55;;;;;;;11.04;61.87;94852.97;5010553;28;20050;-81
2023/04/20 09:17:16;;;;;;;24.08;15.10;;;;;;;11.33;62.36;94932.50;5010078;28;20040;-80
2023/04/20 09:19:52;;;;;;;23.98;14.63;;;;;;;11.14;61.71;94880.16;5030101;28;20048;-80
2023/04/20 09:22:28;;;;;;;26.70;15.40;;;;;;;11.07;62.40;94831.94;5011504;28;20053;-83
2023/04/20 09:24:54;;;;;;;20.25;14.05;;;;;;;11.93;61.98;94917.66;5012113;28;20121;-83
2023/04/20 09:27:21;;;;;;;24.55;13.55;;;;;;;11.44;60.38;94836.50;5019921;28;20025;-81
2023/04/20 09:30:00;;;;;;;18.42;12.98;;;;;;;11.68;61.18;94925.94;5019189;28;20037;-82
2023/04/20 09:32:27;;;;;;;23.52;15.45;;;;;;;11.71;61.19;94906.78;5027537;28;20206;-84
2023/04/20 09:34:53;;;;;;;25.17;14.77;;;;;;;11.98;60.70;94914.94;5026143;28;20036;-84
2023/04/20 09:37:21;;;;;;;18.90;12.55;;;;;;;12.05;60.86;94891.47;5017893;28;20021;-82
2023/04/20 09:39:47;;;;;;;17.48;13.35;;;;;;;11.65;59.46;94813.13;5010251;28;20601;-82
2023/04/20 09:42:16;;;;;;;23.77;13.95;;;;;;;11.89;59.32;94847.59;5025472;28;20034;-81
2023/04/20 09:44:42;;;;;;;23.70;13.90;;;;;;;12.27;58.79;94874.91;5026134;28;20026;-81
2023/04/20 09:47:20;;;;;;;20.90;13.70;;;;;;;12.73;58.75;94904.19;5030120;28;20427;-85
2023/04/20 09:49:49;;;;;;;18.40;13.15;;;;;;;12.62;57.96;94886.78;5032340;28;20488;-84
2023/04/20 09:52:18;;;;;;;19.65;12.35;;;;;;;11.46;58.12;94700.78;5013462;28;20153;-86
2023/04/20 09:54:44;;;;;;;17.08;12.07;;;;;;;12.84;57.77;94897.56;5027128;28;20033;-84
2023/04/20 09:57:11;;;;;;;19.67;13.60;;;;;;;13.17;57.22;94918.84;5005029;28;20048;-84
2023/04/20 09:59:41;;;;;;;22.58;13.48;;;;;;;13.08;57.28;94876.88;5007168;28;20040;-82
2023/04/20 10:02:11;;;;;;;18.13;12.57;;;;;;;10.91;56.98;94589.13;5010169;28;20077;-83
2023/04/20 10:04:38;;;;;;;23.00;12.77;;;;;;;12.03;55.96;94662.38;5020373;28;20061;-85
2023/04/20 10:07:05;;;;;;;16.77;12.10;;;;;;;11.03;55.82;94538.28;5033826;28;20587;-85
2023/04/20 10:09:32;;;;;;;20.40;12.77;;;;;;;12.12;56.50;94732.41;5011011;28;20058;-84
2023/04/20 10:12:08;;;;;;;18.77;13.40;;;;;;;13.11;56.63;94872.84;5012189;28;20049;-86
2023/04/20 10:14:34;;;;;;;22.05;12.55;;;;;;;12.94;56.38;94812.22;5012547;28;20061;-81
2023/04/20 10:17:08;;;;;;;19.05;13.77;;;;;;;13.49;56.75;94881.44;5019120;28;20046;-87
2023/04/20 10:19:37;;;;;;;16.13;11.98;;;;;;;13.42;55.75;94883.72;5002865;28;20040;-81
2023/04/20 10:22:03;;;;;;;16.95;12.50;;;;;;;12.45;54.93;94663.16;5006661;28;20026;-81
2023/04/20 10:24:29;;;;;;;18.27;12.55;;;;;;;13.97;54.24;94881.69;5011906;28;20415;-82
2023/04/20 10:26:56;;;;;;;13.05;10.05;;;;;;;13.20;53.17;94742.53;5021630;28;20041;-83
2023/04/20 10:29:26;;;;;;;16.92;11.63;;;;;;;14.02;52.70;94883.47;5001598;28;20063;-83
2023/04/20 10:31:52;;;;;;;15.70;11.15;;;;;;;13.59;52.60;94819.13;5001886;28;20036;-82
2023/04/20 10:34:38;;;;;;;17.85;11.32;;;;;;;14.21;52.42;94865.41;5000582;28;20029;-81
2023/04/20 10:37:12;;;;;;;23.48;12.27;;;;;;;14.26;52.86;94830.63;5014912;28;20045;-81
2023/04/20 10:39:45;;;;;;;16.52;11.38;;;;;;;14.33;52.21;94823.00;5000262;28;20030;-81
2023/04/20 10:42:11;;;;;;;18.40;12.80;;;;;;;14.54;52.48;94840.09;5001357;28;20026;-83
2023/04/20 10:44:56;;;;;;;17.60;11.52;;;;;;;14.60;52.24;94864.75;5020112;28;20044;-82
2023/04/20 10:47:27;;;;;;;18.00;11.77;;;;;;;14.44;52.07;94863.56;5015878;28;20044;-81
2023/04/20 10:49:52;;;;;;;15.20;10.68;;;;;;;13.94;52.32;94813.00;5002733;28;20381;-81
2023/04/20 10:52:30;;;;;;;14.85;10.77;;;;;;;14.29;51.40;94838.00;4999783;28;20237;-81
2023/04/20 10:54:56;;;;;;;18.67;10.77;;;;;;;14.10;51.33;94782.22;5001775;28;20144;-82
2023/04/20 10:57:21;;;;;;;16.48;11.50;;;;;;;14.68;51.18;94837.31;5004013;28;20210;-81
2023/04/20 10:59:46;;;;;;;18.88;10.90;;;;;;;14.47;51.84;94809.59;5003816;28;20025;-81
2023/04/20 11:02:13;;;;;;;15.23;9.88;;;;;;;14.18;51.26;94794.81;5017213;28;20033;-80
2023/04/20 11:04:39;;;;;;;16.48;10.05;;;;;;;14.95;49.92;94810.41;5018591;28;20041;-81
2023/04/20 11:07:09;;;;;;;15.82;11.00;;;;;;;15.66;49.24;94842.34;5022343;28;20033;-81
2023/04/20 11:09:37;;;;;;;14.75;11.07;;;;;;;15.42;48.90;94747.34;5018848;28;20344;-82
2023/04/20 11:12:06;;;;;;;15.43;10.57;;;;;;;16.85;46.95;94847.94;5022335;28;20041;-82
2023/04/20 11:14:39;;;;;;;17.10;10.18;;;;;;;15.72;47.32;94744.84;5003169;28;20060;-82
2023/04/20 11:17:05;;;;;;;11.07;8.35;;;;;;;15.84;45.79;94811.84;5019342;28;20037;-80
2023/04/20 11:19:35;;;;;;;14.20;8.55;;;;;;;15.80;45.48;94789.50;5018711;28;20052;-83